sensor_id;sensor_type;location;lat;lon;timestamp;P1;durP1;ratioP1;P2;durP2;ratioP2
58768;SDS011;44536;47.474;19.056;2023-03-01T00:02:44;19.42;;;10.13;;
58768;SDS011;44536;47.474;19.056;2023-03-01T00:05:47;18.33;;;9.50;;
58768;SDS011;44536;47.474;19.056;2023-03-01T00:08:49;18.48;;;10.23;;
58768;SDS011;44536;47.474;19.056;2023-03-01T00:11:51;18.10;;;9.57;;
58768;SDS011;44536;47.474;19.056;2023-03-01T00:14:54;17.27;;;9.55;;
58768;SDS011;44536;47.474;19.056;2023-03-01T00:17:56;15.90;;;8.70;;
58768;SDS011;44536;47.474;19.056;2023-03-01T00:20:59;17.25;;;9.45;;
58768;SDS011;44536;47.474;19.056;2023-03-01T00:24:01;17.35;;;9.98;;
58768;SDS011;44536;47.474;19.056;2023-03-01T00:27:04;19.75;;;11.30;;
58768;SDS011;44536;47.474;19.056;2023-03-01T00:30:07;17.55;;;8.10;;
58768;SDS011;44536;47.474;19.056;2023-03-01T00:33:10;18.25;;;10.70;;
58768;SDS011;44536;47.474;19.056;2023-03-01T00:36:13;20.08;;;10.80;;
58768;SDS011;44536;47.474;19.056;2023-03-01T00:39:16;17.60;;;11.12;;
58768;SDS011;44536;47.474;19.056;2023-03-01T00:42:19;21.30;;;10.45;;
58768;SDS011;44536;47.474;19.056;2023-03-01T00:45:22;19.77;;;10.02;;
58768;SDS011;44536;47.474;19.056;2023-03-01T00:48:24;19.15;;;9.75;;
58768;SDS011;44536;47.474;19.056;2023-03-01T00:51:27;19.90;;;11.12;;
58768;SDS011;44536;47.474;19.056;2023-03-01T00:54:31;19.15;;;9.75;;
58768;SDS011;44536;47.474;19.056;2023-03-01T00:57:33;13.85;;;7.68;;
58768;SDS011;44536;47.474;19.056;2023-03-01T01:00:35;14.02;;;7.87;;
58768;SDS011;44536;47.474;19.056;2023-03-01T01:03:38;17.10;;;8.48;;
58768;SDS011;44536;47.474;19.056;2023-03-01T01:06:42;15.48;;;7.30;;
58768;SDS011;44536;47.474;19.056;2023-03-01T01:09:46;16.20;;;8.40;;
58768;SDS011;44536;47.474;19.056;2023-03-01T01:12:48;16.80;;;8.48;;
58768;SDS011;44536;47.474;19.056;2023-03-01T01:15:51;14.80;;;8.68;;
58768;SDS011;44536;47.474;19.056;2023-03-01T01:18:54;15.43;;;9.48;;
58768;SDS011;44536;47.474;19.056;2023-03-01T01:21:57;15.75;;;8.23;;
58768;SDS011;44536;47.474;19.056;2023-03-01T01:25:00;14.70;;;7.80;;
58768;SDS011;44536;47.474;19.056;2023-03-01T01:28:02;14.75;;;8.07;;
58768;SDS011;44536;47.474;19.056;2023-03-01T01:31:05;15.17;;;8.40;;
58768;SDS011;44536;47.474;19.056;2023-03-01T01:34:08;20.20;;;9.18;;
58768;SDS011;44536;47.474;19.056;2023-03-01T01:37:18;18.40;;;9.52;;
58768;SDS011;44536;47.474;19.056;2023-03-01T01:40:20;15.10;;;8.02;;
58768;SDS011;44536;47.474;19.056;2023-03-01T01:43:29;15.13;;;9.23;;
58768;SDS011;44536;47.474;19.056;2023-03-01T01:46:37;16.35;;;6.90;;
58768;SDS011;44536;47.474;19.056;2023-03-01T01:53:08;16.40;;;8.77;;
58768;SDS011;44536;47.474;19.056;2023-03-01T01:56:14;14.98;;;8.98;;
58768;SDS011;44536;47.474;19.056;2023-03-01T01:59:19;13.60;;;7.20;;
58768;SDS011;44536;47.474;19.056;2023-03-01T02:02:26;15.82;;;9.00;;
58768;SDS011;44536;47.474;19.056;2023-03-01T02:09:14;14.07;;;7.97;;
58768;SDS011;44536;47.474;19.056;2023-03-01T02:12:19;16.17;;;8.85;;
58768;SDS011;44536;47.474;19.056;2023-03-01T02:15:24;16.17;;;8.63;;
58768;SDS011;44536;47.474;19.056;2023-03-01T02:18:28;14.18;;;8.27;;
58768;SDS011;44536;47.474;19.056;2023-03-01T02:21:38;12.98;;;7.05;;
58768;SDS011;44536;47.474;19.056;2023-03-01T02:25:12;14.27;;;6.65;;
58768;SDS011;44536;47.474;19.056;2023-03-01T02:28:36;13.45;;;7.00;;
58768;SDS011;44536;47.474;19.056;2023-03-01T02:31:41;16.35;;;8.52;;
58768;SDS011;44536;47.474;19.056;2023-03-01T02:34:45;16.60;;;8.90;;
58768;SDS011;44536;47.474;19.056;2023-03-01T02:37:48;15.48;;;7.68;;
58768;SDS011;44536;47.474;19.056;2023-03-01T02:40:51;18.52;;;7.25;;
58768;SDS011;44536;47.474;19.056;2023-03-01T02:43:56;16.52;;;8.55;;
58768;SDS011;44536;47.474;19.056;2023-03-01T02:46:58;12.02;;;7.18;;
58768;SDS011;44536;47.474;19.056;2023-03-01T02:50:13;16.92;;;8.40;;
58768;SDS011;44536;47.474;19.056;2023-03-01T02:57:04;16.12;;;7.80;;
58768;SDS011;44536;47.474;19.056;2023-03-01T03:00:08;15.10;;;8.53;;
58768;SDS011;44536;47.474;19.056;2023-03-01T03:03:13;12.82;;;7.53;;
58768;SDS011;44536;47.474;19.056;2023-03-01T03:06:18;12.80;;;7.50;;
58768;SDS011;44536;47.474;19.056;2023-03-01T03:09:21;13.50;;;7.93;;
58768;SDS011;44536;47.474;19.056;2023-03-01T03:12:24;11.98;;;6.80;;
58768;SDS011;44536;47.474;19.056;2023-03-01T03:15:26;12.20;;;7.45;;
58768;SDS011;44536;47.474;19.056;2023-03-01T03:18:29;15.60;;;7.43;;
58768;SDS011;44536;47.474;19.056;2023-03-01T03:21:32;17.40;;;7.75;;
58768;SDS011;44536;47.474;19.056;2023-03-01T03:24:35;19.45;;;8.10;;
58768;SDS011;44536;47.474;19.056;2023-03-01T03:27:41;16.70;;;9.25;;
58768;SDS011;44536;47.474;19.056;2023-03-01T03:30:44;15.35;;;7.12;;
58768;SDS011;44536;47.474;19.056;2023-03-01T03:33:48;13.50;;;7.15;;
58768;SDS011;44536;47.474;19.056;2023-03-01T03:36:54;17.20;;;8.27;;
58768;SDS011;44536;47.474;19.056;2023-03-01T03:39:58;16.73;;;8.73;;
58768;SDS011;44536;47.474;19.056;2023-03-01T03:43:01;15.07;;;7.12;;
58768;SDS011;44536;47.474;19.056;2023-03-01T03:46:05;14.00;;;7.07;;
58768;SDS011;44536;47.474;19.056;2023-03-01T03:52:11;14.73;;;6.22;;
58768;SDS011;44536;47.474;19.056;2023-03-01T03:55:15;16.08;;;7.12;;
58768;SDS011;44536;47.474;19.056;2023-03-01T03:58:22;13.48;;;6.82;;
58768;SDS011;44536;47.474;19.056;2023-03-01T04:04:27;17.80;;;8.32;;
58768;SDS011;44536;47.474;19.056;2023-03-01T04:07:29;14.40;;;8.35;;
58768;SDS011;44536;47.474;19.056;2023-03-01T04:10:42;16.85;;;9.38;;
58768;SDS011;44536;47.474;19.056;2023-03-01T04:13:46;17.10;;;8.55;;
58768;SDS011;44536;47.474;19.056;2023-03-01T04:16:48;14.73;;;8.00;;
58768;SDS011;44536;47.474;19.056;2023-03-01T04:19:51;16.60;;;9.20;;
58768;SDS011;44536;47.474;19.056;2023-03-01T04:26:12;16.77;;;8.75;;
58768;SDS011;44536;47.474;19.056;2023-03-01T04:29:14;14.20;;;7.93;;
58768;SDS011;44536;47.474;19.056;2023-03-01T04:32:17;11.90;;;7.28;;
58768;SDS011;44536;47.474;19.056;2023-03-01T04:38:22;13.68;;;8.02;;
58768;SDS011;44536;47.474;19.056;2023-03-01T04:41:25;15.02;;;7.12;;
58768;SDS011;44536;47.474;19.056;2023-03-01T04:47:31;14.87;;;7.57;;
58768;SDS011;44536;47.474;19.056;2023-03-01T04:50:33;15.15;;;9.65;;
58768;SDS011;44536;47.474;19.056;2023-03-01T04:53:37;18.45;;;9.00;;
58768;SDS011;44536;47.474;19.056;2023-03-01T04:56:39;14.90;;;7.25;;
58768;SDS011;44536;47.474;19.056;2023-03-01T04:59:41;15.25;;;7.85;;
58768;SDS011;44536;47.474;19.056;2023-03-01T05:02:43;16.83;;;7.80;;
58768;SDS011;44536;47.474;19.056;2023-03-01T05:05:47;18.70;;;8.32;;
58768;SDS011;44536;47.474;19.056;2023-03-01T05:08:51;15.45;;;7.72;;
58768;SDS011;44536;47.474;19.056;2023-03-01T05:11:53;15.20;;;7.53;;
58768;SDS011;44536;47.474;19.056;2023-03-01T05:14:55;19.17;;;9.27;;
58768;SDS011;44536;47.474;19.056;2023-03-01T05:17:58;15.98;;;7.40;;
58768;SDS011;44536;47.474;19.056;2023-03-01T05:21:05;14.27;;;7.10;;
58768;SDS011;44536;47.474;19.056;2023-03-01T05:24:10;14.95;;;8.77;;
58768;SDS011;44536;47.474;19.056;2023-03-01T05:27:13;12.37;;;7.50;;
58768;SDS011;44536;47.474;19.056;2023-03-01T05:30:17;20.23;;;8.35;;
58768;SDS011;44536;47.474;19.056;2023-03-01T05:33:20;13.68;;;7.53;;
58768;SDS011;44536;47.474;19.056;2023-03-01T05:36:24;14.13;;;7.35;;
58768;SDS011;44536;47.474;19.056;2023-03-01T05:39:26;14.30;;;7.75;;
58768;SDS011;44536;47.474;19.056;2023-03-01T05:42:30;15.80;;;8.70;;
58768;SDS011;44536;47.474;19.056;2023-03-01T05:45:32;14.70;;;7.10;;
58768;SDS011;44536;47.474;19.056;2023-03-01T05:48:35;14.02;;;7.65;;
58768;SDS011;44536;47.474;19.056;2023-03-01T05:51:37;13.45;;;6.68;;
58768;SDS011;44536;47.474;19.056;2023-03-01T05:54:40;15.02;;;7.75;;
58768;SDS011;44536;47.474;19.056;2023-03-01T05:57:42;11.35;;;6.50;;
58768;SDS011;44536;47.474;19.056;2023-03-01T06:00:46;13.30;;;6.32;;
58768;SDS011;44536;47.474;19.056;2023-03-01T06:03:50;12.13;;;6.93;;
58768;SDS011;44536;47.474;19.056;2023-03-01T06:06:52;13.75;;;7.40;;
58768;SDS011;44536;47.474;19.056;2023-03-01T06:09:54;15.80;;;7.45;;
58768;SDS011;44536;47.474;19.056;2023-03-01T06:12:57;16.30;;;7.55;;
58768;SDS011;44536;47.474;19.056;2023-03-01T06:15:59;16.13;;;7.83;;
58768;SDS011;44536;47.474;19.056;2023-03-01T06:19:02;14.65;;;7.70;;
58768;SDS011;44536;47.474;19.056;2023-03-01T06:22:05;18.30;;;8.68;;
58768;SDS011;44536;47.474;19.056;2023-03-01T06:25:07;17.33;;;9.55;;
58768;SDS011;44536;47.474;19.056;2023-03-01T06:28:10;14.07;;;8.60;;
58768;SDS011;44536;47.474;19.056;2023-03-01T06:31:12;13.20;;;7.82;;
58768;SDS011;44536;47.474;19.056;2023-03-01T06:34:15;14.97;;;7.50;;
58768;SDS011;44536;47.474;19.056;2023-03-01T06:37:17;14.00;;;8.05;;
58768;SDS011;44536;47.474;19.056;2023-03-01T06:40:20;15.50;;;8.48;;
58768;SDS011;44536;47.474;19.056;2023-03-01T06:43:23;17.20;;;8.40;;
58768;SDS011;44536;47.474;19.056;2023-03-01T06:46:26;12.90;;;7.78;;
58768;SDS011;44536;47.474;19.056;2023-03-01T06:49:30;14.50;;;8.10;;
58768;SDS011;44536;47.474;19.056;2023-03-01T06:52:32;18.17;;;10.55;;
58768;SDS011;44536;47.474;19.056;2023-03-01T06:55:34;18.17;;;9.00;;
58768;SDS011;44536;47.474;19.056;2023-03-01T06:58:37;17.33;;;9.45;;
58768;SDS011;44536;47.474;19.056;2023-03-01T07:01:39;15.55;;;7.70;;
58768;SDS011;44536;47.474;19.056;2023-03-01T07:04:42;16.50;;;8.38;;
58768;SDS011;44536;47.474;19.056;2023-03-01T07:07:44;15.52;;;8.38;;
58768;SDS011;44536;47.474;19.056;2023-03-01T07:10:47;14.70;;;8.23;;
58768;SDS011;44536;47.474;19.056;2023-03-01T07:13:50;16.02;;;8.52;;
58768;SDS011;44536;47.474;19.056;2023-03-01T07:16:54;13.65;;;7.53;;
58768;SDS011;44536;47.474;19.056;2023-03-01T07:19:58;20.40;;;9.27;;
58768;SDS011;44536;47.474;19.056;2023-03-01T07:23:01;16.20;;;9.38;;
58768;SDS011;44536;47.474;19.056;2023-03-01T07:26:03;15.55;;;8.90;;
58768;SDS011;44536;47.474;19.056;2023-03-01T07:29:07;14.75;;;8.32;;
58768;SDS011;44536;47.474;19.056;2023-03-01T07:32:11;15.20;;;8.23;;
58768;SDS011;44536;47.474;19.056;2023-03-01T07:35:16;13.85;;;7.43;;
58768;SDS011;44536;47.474;19.056;2023-03-01T07:38:18;15.00;;;7.93;;
58768;SDS011;44536;47.474;19.056;2023-03-01T07:44:26;14.25;;;7.87;;
58768;SDS011;44536;47.474;19.056;2023-03-01T07:47:30;14.80;;;8.95;;
58768;SDS011;44536;47.474;19.056;2023-03-01T07:50:32;13.52;;;6.93;;
58768;SDS011;44536;47.474;19.056;2023-03-01T07:53:35;17.23;;;8.35;;
58768;SDS011;44536;47.474;19.056;2023-03-01T07:56:37;12.48;;;7.72;;
58768;SDS011;44536;47.474;19.056;2023-03-01T07:59:40;18.30;;;9.05;;
58768;SDS011;44536;47.474;19.056;2023-03-01T08:02:42;15.18;;;8.40;;
58768;SDS011;44536;47.474;19.056;2023-03-01T08:05:45;15.98;;;7.90;;
58768;SDS011;44536;47.474;19.056;2023-03-01T08:08:47;14.18;;;7.70;;
58768;SDS011;44536;47.474;19.056;2023-03-01T08:11:49;15.55;;;8.40;;
58768;SDS011;44536;47.474;19.056;2023-03-01T08:14:52;14.70;;;7.78;;
58768;SDS011;44536;47.474;19.056;2023-03-01T08:17:55;15.93;;;8.70;;
58768;SDS011;44536;47.474;19.056;2023-03-01T08:21:07;15.13;;;7.37;;
58768;SDS011;44536;47.474;19.056;2023-03-01T08:24:12;15.70;;;8.68;;
58768;SDS011;44536;47.474;19.056;2023-03-01T08:27:15;14.93;;;7.25;;
58768;SDS011;44536;47.474;19.056;2023-03-01T08:33:23;14.77;;;9.10;;
58768;SDS011;44536;47.474;19.056;2023-03-01T08:36:27;15.55;;;7.20;;
58768;SDS011;44536;47.474;19.056;2023-03-01T08:39:31;14.02;;;7.45;;
58768;SDS011;44536;47.474;19.056;2023-03-01T08:42:34;13.65;;;8.02;;
58768;SDS011;44536;47.474;19.056;2023-03-01T08:45:36;17.55;;;10.30;;
58768;SDS011;44536;47.474;19.056;2023-03-01T08:48:39;16.85;;;9.35;;
58768;SDS011;44536;47.474;19.056;2023-03-01T08:51:45;15.57;;;9.15;;
58768;SDS011;44536;47.474;19.056;2023-03-01T08:54:48;12.32;;;7.97;;
58768;SDS011;44536;47.474;19.056;2023-03-01T08:57:50;16.65;;;9.65;;
58768;SDS011;44536;47.474;19.056;2023-03-01T09:00:53;14.52;;;9.15;;
58768;SDS011;44536;47.474;19.056;2023-03-01T09:03:55;15.63;;;7.87;;
58768;SDS011;44536;47.474;19.056;2023-03-01T09:06:58;17.20;;;8.20;;
58768;SDS011;44536;47.474;19.056;2023-03-01T09:10:01;14.27;;;8.40;;
58768;SDS011;44536;47.474;19.056;2023-03-01T09:13:03;13.97;;;9.00;;
58768;SDS011;44536;47.474;19.056;2023-03-01T09:16:06;15.73;;;9.23;;
58768;SDS011;44536;47.474;19.056;2023-03-01T09:22:13;18.37;;;9.15;;
58768;SDS011;44536;47.474;19.056;2023-03-01T09:25:16;18.17;;;10.50;;
58768;SDS011;44536;47.474;19.056;2023-03-01T09:28:18;16.50;;;10.10;;
58768;SDS011;44536;47.474;19.056;2023-03-01T09:31:31;14.97;;;9.43;;
58768;SDS011;44536;47.474;19.056;2023-03-01T09:34:33;15.45;;;8.75;;
58768;SDS011;44536;47.474;19.056;2023-03-01T09:37:56;16.33;;;9.52;;
58768;SDS011;44536;47.474;19.056;2023-03-01T09:40:59;16.20;;;8.52;;
58768;SDS011;44536;47.474;19.056;2023-03-01T09:47:20;16.90;;;9.80;;
58768;SDS011;44536;47.474;19.056;2023-03-01T09:50:26;17.70;;;9.13;;
58768;SDS011;44536;47.474;19.056;2023-03-01T09:53:33;17.00;;;9.52;;
58768;SDS011;44536;47.474;19.056;2023-03-01T09:56:39;18.02;;;10.63;;
58768;SDS011;44536;47.474;19.056;2023-03-01T10:03:43;16.75;;;9.18;;
58768;SDS011;44536;47.474;19.056;2023-03-01T10:10:05;16.62;;;10.35;;
58768;SDS011;44536;47.474;19.056;2023-03-01T10:13:17;14.48;;;9.13;;
58768;SDS011;44536;47.474;19.056;2023-03-01T10:16:27;15.98;;;9.80;;
58768;SDS011;44536;47.474;19.056;2023-03-01T10:19:43;17.73;;;10.38;;
58768;SDS011;44536;47.474;19.056;2023-03-01T10:22:48;16.08;;;8.80;;
58768;SDS011;44536;47.474;19.056;2023-03-01T10:29:09;15.38;;;9.93;;
58768;SDS011;44536;47.474;19.056;2023-03-01T10:32:14;15.98;;;9.25;;
58768;SDS011;44536;47.474;19.056;2023-03-01T10:35:28;15.45;;;9.55;;
58768;SDS011;44536;47.474;19.056;2023-03-01T10:38:46;15.23;;;8.90;;
58768;SDS011;44536;47.474;19.056;2023-03-01T10:41:52;23.02;;;9.75;;
58768;SDS011;44536;47.474;19.056;2023-03-01T10:44:55;16.27;;;9.15;;
58768;SDS011;44536;47.474;19.056;2023-03-01T10:51:12;16.35;;;9.90;;
58768;SDS011;44536;47.474;19.056;2023-03-01T10:54:30;19.42;;;10.25;;
58768;SDS011;44536;47.474;19.056;2023-03-01T10:57:35;16.17;;;9.68;;
58768;SDS011;44536;47.474;19.056;2023-03-01T11:00:57;15.23;;;8.32;;
58768;SDS011;44536;47.474;19.056;2023-03-01T11:07:08;14.10;;;7.90;;
58768;SDS011;44536;47.474;19.056;2023-03-01T11:10:11;15.63;;;9.38;;
58768;SDS011;44536;47.474;19.056;2023-03-01T11:13:17;13.23;;;8.80;;
58768;SDS011;44536;47.474;19.056;2023-03-01T11:16:25;14.43;;;8.48;;
58768;SDS011;44536;47.474;19.056;2023-03-01T11:19:41;13.07;;;7.62;;
58768;SDS011;44536;47.474;19.056;2023-03-01T11:22:55;15.02;;;9.07;;
58768;SDS011;44536;47.474;19.056;2023-03-01T11:26:05;13.77;;;8.13;;
58768;SDS011;44536;47.474;19.056;2023-03-01T11:29:36;14.35;;;8.40;;
58768;SDS011;44536;47.474;19.056;2023-03-01T11:32:53;12.52;;;7.60;;
58768;SDS011;44536;47.474;19.056;2023-03-01T11:58:59;12.55;;;8.13;;
58768;SDS011;44536;47.474;19.056;2023-03-01T12:02:27;13.93;;;8.30;;
58768;SDS011;44536;47.474;19.056;2023-03-01T12:05:47;15.50;;;9.30;;
58768;SDS011;44536;47.474;19.056;2023-03-01T12:33:03;13.48;;;8.02;;
58768;SDS011;44536;47.474;19.056;2023-03-01T12:36:41;14.45;;;9.18;;
58768;SDS011;44536;47.474;19.056;2023-03-01T12:49:34;16.70;;;8.10;;
58768;SDS011;44536;47.474;19.056;2023-03-01T12:52:45;14.25;;;8.02;;
58768;SDS011;44536;47.474;19.056;2023-03-01T12:55:48;13.23;;;7.45;;
58768;SDS011;44536;47.474;19.056;2023-03-01T12:59:09;10.05;;;6.72;;
58768;SDS011;44536;47.474;19.056;2023-03-01T13:15:44;14.87;;;7.07;;
58768;SDS011;44536;47.474;19.056;2023-03-01T13:18:49;11.07;;;4.87;;
58768;SDS011;44536;47.474;19.056;2023-03-01T13:26:06;12.65;;;6.07;;
58768;SDS011;44536;47.474;19.056;2023-03-01T13:29:25;7.37;;;3.92;;
58768;SDS011;44536;47.474;19.056;2023-03-01T13:32:30;11.27;;;5.80;;
58768;SDS011;44536;47.474;19.056;2023-03-01T13:35:45;11.25;;;6.07;;
58768;SDS011;44536;47.474;19.056;2023-03-01T13:38:55;10.63;;;6.28;;
58768;SDS011;44536;47.474;19.056;2023-03-01T13:42:00;11.95;;;6.25;;
58768;SDS011;44536;47.474;19.056;2023-03-01T13:45:26;8.80;;;5.32;;
58768;SDS011;44536;47.474;19.056;2023-03-01T13:48:47;11.23;;;6.43;;
58768;SDS011;44536;47.474;19.056;2023-03-01T13:51:53;8.85;;;4.97;;
58768;SDS011;44536;47.474;19.056;2023-03-01T13:54:56;7.30;;;3.90;;
58768;SDS011;44536;47.474;19.056;2023-03-01T13:58:00;7.85;;;4.55;;
58768;SDS011;44536;47.474;19.056;2023-03-01T14:01:07;8.18;;;4.35;;
58768;SDS011;44536;47.474;19.056;2023-03-01T14:04:32;8.20;;;4.12;;
58768;SDS011;44536;47.474;19.056;2023-03-01T14:07:37;9.25;;;4.07;;
58768;SDS011;44536;47.474;19.056;2023-03-01T14:17:35;8.38;;;3.72;;
58768;SDS011;44536;47.474;19.056;2023-03-01T14:20:44;6.85;;;3.55;;
58768;SDS011;44536;47.474;19.056;2023-03-01T14:23:53;9.50;;;4.70;;
58768;SDS011;44536;47.474;19.056;2023-03-01T14:26:55;11.02;;;4.62;;
58768;SDS011;44536;47.474;19.056;2023-03-01T14:29:59;10.27;;;4.62;;
58768;SDS011;44536;47.474;19.056;2023-03-01T14:33:05;7.35;;;4.37;;
58768;SDS011;44536;47.474;19.056;2023-03-01T14:36:25;11.35;;;4.80;;
58768;SDS011;44536;47.474;19.056;2023-03-01T14:39:29;9.45;;;4.65;;
58768;SDS011;44536;47.474;19.056;2023-03-01T14:42:34;9.25;;;3.62;;
58768;SDS011;44536;47.474;19.056;2023-03-01T14:45:38;8.82;;;4.32;;
58768;SDS011;44536;47.474;19.056;2023-03-01T14:48:41;8.63;;;3.92;;
58768;SDS011;44536;47.474;19.056;2023-03-01T14:51:50;7.30;;;3.17;;
58768;SDS011;44536;47.474;19.056;2023-03-01T14:54:55;10.18;;;4.50;;
58768;SDS011;44536;47.474;19.056;2023-03-01T14:58:02;7.53;;;3.60;;
58768;SDS011;44536;47.474;19.056;2023-03-01T15:01:07;7.40;;;4.82;;
58768;SDS011;44536;47.474;19.056;2023-03-01T15:04:16;8.57;;;4.20;;
58768;SDS011;44536;47.474;19.056;2023-03-01T15:07:20;7.22;;;3.15;;
58768;SDS011;44536;47.474;19.056;2023-03-01T15:10:27;7.47;;;3.60;;
58768;SDS011;44536;47.474;19.056;2023-03-01T15:13:33;9.80;;;4.30;;
58768;SDS011;44536;47.474;19.056;2023-03-01T15:16:38;9.45;;;3.95;;
58768;SDS011;44536;47.474;19.056;2023-03-01T15:19:45;8.10;;;4.70;;
58768;SDS011;44536;47.474;19.056;2023-03-01T15:22:48;8.80;;;4.15;;
58768;SDS011;44536;47.474;19.056;2023-03-01T15:25:51;11.77;;;4.60;;
58768;SDS011;44536;47.474;19.056;2023-03-01T15:29:01;7.40;;;3.42;;
58768;SDS011;44536;47.474;19.056;2023-03-01T15:32:23;13.63;;;5.10;;
58768;SDS011;44536;47.474;19.056;2023-03-01T15:38:54;8.35;;;4.37;;
58768;SDS011;44536;47.474;19.056;2023-03-01T15:41:58;7.40;;;3.72;;
58768;SDS011;44536;47.474;19.056;2023-03-01T15:45:19;9.30;;;4.20;;
58768;SDS011;44536;47.474;19.056;2023-03-01T15:48:25;7.40;;;3.07;;
58768;SDS011;44536;47.474;19.056;2023-03-01T15:51:30;7.57;;;3.50;;
58768;SDS011;44536;47.474;19.056;2023-03-01T15:54:38;9.80;;;4.30;;
58768;SDS011;44536;47.474;19.056;2023-03-01T15:57:42;8.63;;;3.00;;
58768;SDS011;44536;47.474;19.056;2023-03-01T16:00:45;10.45;;;3.65;;
58768;SDS011;44536;47.474;19.056;2023-03-01T16:04:02;11.05;;;4.25;;
58768;SDS011;44536;47.474;19.056;2023-03-01T16:07:05;8.75;;;3.90;;
58768;SDS011;44536;47.474;19.056;2023-03-01T16:10:08;14.85;;;6.15;;
58768;SDS011;44536;47.474;19.056;2023-03-01T16:13:14;9.02;;;4.12;;
58768;SDS011;44536;47.474;19.056;2023-03-01T16:16:16;9.68;;;4.20;;
58768;SDS011;44536;47.474;19.056;2023-03-01T16:19:19;11.07;;;4.33;;
58768;SDS011;44536;47.474;19.056;2023-03-01T16:22:22;8.80;;;4.80;;
58768;SDS011;44536;47.474;19.056;2023-03-01T16:25:27;9.43;;;3.30;;
58768;SDS011;44536;47.474;19.056;2023-03-01T16:28:30;8.80;;;4.15;;
58768;SDS011;44536;47.474;19.056;2023-03-01T16:31:32;8.10;;;3.85;;
58768;SDS011;44536;47.474;19.056;2023-03-01T16:34:36;7.60;;;3.47;;
58768;SDS011;44536;47.474;19.056;2023-03-01T16:37:38;7.37;;;3.17;;
58768;SDS011;44536;47.474;19.056;2023-03-01T16:40:41;8.00;;;3.37;;
58768;SDS011;44536;47.474;19.056;2023-03-01T16:43:50;8.77;;;4.28;;
58768;SDS011;44536;47.474;19.056;2023-03-01T16:46:53;9.88;;;4.12;;
58768;SDS011;44536;47.474;19.056;2023-03-01T16:49:55;7.55;;;3.42;;
58768;SDS011;44536;47.474;19.056;2023-03-01T16:52:58;8.50;;;4.12;;
58768;SDS011;44536;47.474;19.056;2023-03-01T16:56:00;10.68;;;4.30;;
58768;SDS011;44536;47.474;19.056;2023-03-01T16:59:03;7.93;;;3.72;;
58768;SDS011;44536;47.474;19.056;2023-03-01T17:02:11;9.45;;;4.18;;
58768;SDS011;44536;47.474;19.056;2023-03-01T17:05:14;10.35;;;4.75;;
58768;SDS011;44536;47.474;19.056;2023-03-01T17:08:17;9.38;;;5.50;;
58768;SDS011;44536;47.474;19.056;2023-03-01T17:11:20;8.38;;;4.57;;
58768;SDS011;44536;47.474;19.056;2023-03-01T17:14:23;10.15;;;4.28;;
58768;SDS011;44536;47.474;19.056;2023-03-01T17:17:26;11.85;;;4.87;;
58768;SDS011;44536;47.474;19.056;2023-03-01T17:20:28;10.38;;;5.35;;
58768;SDS011;44536;47.474;19.056;2023-03-01T17:23:32;12.15;;;6.07;;
58768;SDS011;44536;47.474;19.056;2023-03-01T17:29:37;10.73;;;6.12;;
58768;SDS011;44536;47.474;19.056;2023-03-01T17:32:41;10.40;;;6.50;;
58768;SDS011;44536;47.474;19.056;2023-03-01T17:35:44;15.32;;;6.70;;
58768;SDS011;44536;47.474;19.056;2023-03-01T17:38:48;21.23;;;6.57;;
58768;SDS011;44536;47.474;19.056;2023-03-01T17:41:51;9.88;;;5.90;;
58768;SDS011;44536;47.474;19.056;2023-03-01T17:44:53;11.90;;;6.22;;
58768;SDS011;44536;47.474;19.056;2023-03-01T17:47:56;11.32;;;5.72;;
58768;SDS011;44536;47.474;19.056;2023-03-01T17:50:58;9.15;;;5.00;;
58768;SDS011;44536;47.474;19.056;2023-03-01T17:54:01;11.43;;;5.07;;
58768;SDS011;44536;47.474;19.056;2023-03-01T17:57:04;11.32;;;6.90;;
58768;SDS011;44536;47.474;19.056;2023-03-01T18:00:10;11.50;;;4.65;;
58768;SDS011;44536;47.474;19.056;2023-03-01T18:03:15;10.20;;;4.22;;
58768;SDS011;44536;47.474;19.056;2023-03-01T18:06:25;11.43;;;7.05;;
58768;SDS011;44536;47.474;19.056;2023-03-01T18:09:29;11.18;;;5.10;;
58768;SDS011;44536;47.474;19.056;2023-03-01T18:12:32;10.18;;;5.97;;
58768;SDS011;44536;47.474;19.056;2023-03-01T18:15:34;10.70;;;5.95;;
58768;SDS011;44536;47.474;19.056;2023-03-01T18:18:38;11.77;;;5.50;;
58768;SDS011;44536;47.474;19.056;2023-03-01T18:21:41;12.85;;;6.20;;
58768;SDS011;44536;47.474;19.056;2023-03-01T18:24:44;11.30;;;6.93;;
58768;SDS011;44536;47.474;19.056;2023-03-01T18:27:47;11.38;;;5.87;;
58768;SDS011;44536;47.474;19.056;2023-03-01T18:30:54;17.33;;;6.65;;
58768;SDS011;44536;47.474;19.056;2023-03-01T18:34:20;12.52;;;5.90;;
58768;SDS011;44536;47.474;19.056;2023-03-01T18:37:23;12.40;;;7.60;;
58768;SDS011;44536;47.474;19.056;2023-03-01T18:40:27;11.30;;;6.57;;
58768;SDS011;44536;47.474;19.056;2023-03-01T18:43:30;16.02;;;7.47;;
58768;SDS011;44536;47.474;19.056;2023-03-01T18:46:33;13.40;;;6.28;;
58768;SDS011;44536;47.474;19.056;2023-03-01T18:49:39;14.13;;;7.18;;
58768;SDS011;44536;47.474;19.056;2023-03-01T18:52:41;13.75;;;7.40;;
58768;SDS011;44536;47.474;19.056;2023-03-01T18:55:43;15.15;;;7.85;;
58768;SDS011;44536;47.474;19.056;2023-03-01T18:58:46;15.70;;;8.82;;
58768;SDS011;44536;47.474;19.056;2023-03-01T19:01:48;14.48;;;7.90;;
58768;SDS011;44536;47.474;19.056;2023-03-01T19:04:51;15.18;;;8.95;;
58768;SDS011;44536;47.474;19.056;2023-03-01T19:07:53;14.85;;;9.07;;
58768;SDS011;44536;47.474;19.056;2023-03-01T19:11:00;15.00;;;7.57;;
58768;SDS011;44536;47.474;19.056;2023-03-01T19:14:04;13.95;;;8.52;;
58768;SDS011;44536;47.474;19.056;2023-03-01T19:17:06;13.62;;;7.70;;
58768;SDS011;44536;47.474;19.056;2023-03-01T19:20:09;16.90;;;8.27;;
58768;SDS011;44536;47.474;19.056;2023-03-01T19:26:15;15.27;;;8.00;;
58768;SDS011;44536;47.474;19.056;2023-03-01T19:29:20;13.05;;;7.37;;
58768;SDS011;44536;47.474;19.056;2023-03-01T19:32:22;16.27;;;7.68;;
58768;SDS011;44536;47.474;19.056;2023-03-01T19:35:25;14.07;;;8.15;;
58768;SDS011;44536;47.474;19.056;2023-03-01T19:38:27;12.50;;;7.68;;
58768;SDS011;44536;47.474;19.056;2023-03-01T19:41:31;18.10;;;9.18;;
58768;SDS011;44536;47.474;19.056;2023-03-01T19:44:33;13.48;;;9.88;;
58768;SDS011;44536;47.474;19.056;2023-03-01T19:47:35;18.20;;;9.13;;
58768;SDS011;44536;47.474;19.056;2023-03-01T19:50:38;15.55;;;8.07;;
58768;SDS011;44536;47.474;19.056;2023-03-01T19:53:40;17.55;;;9.07;;
58768;SDS011;44536;47.474;19.056;2023-03-01T19:56:42;15.38;;;8.02;;
58768;SDS011;44536;47.474;19.056;2023-03-01T19:59:45;15.02;;;8.13;;
58768;SDS011;44536;47.474;19.056;2023-03-01T20:02:47;14.15;;;8.07;;
58768;SDS011;44536;47.474;19.056;2023-03-01T20:05:50;11.38;;;7.68;;
58768;SDS011;44536;47.474;19.056;2023-03-01T20:08:53;16.70;;;8.27;;
58768;SDS011;44536;47.474;19.056;2023-03-01T20:11:55;14.30;;;8.57;;
58768;SDS011;44536;47.474;19.056;2023-03-01T20:14:57;15.73;;;8.48;;
58768;SDS011;44536;47.474;19.056;2023-03-01T20:18:00;14.73;;;8.00;;
58768;SDS011;44536;47.474;19.056;2023-03-01T20:21:02;13.40;;;8.52;;
58768;SDS011;44536;47.474;19.056;2023-03-01T20:24:19;16.90;;;9.15;;
58768;SDS011;44536;47.474;19.056;2023-03-01T20:27:21;16.10;;;8.82;;
58768;SDS011;44536;47.474;19.056;2023-03-01T20:30:23;17.77;;;9.57;;
58768;SDS011;44536;47.474;19.056;2023-03-01T20:33:26;15.77;;;8.23;;